Puget — AEQW — position and weather

sailwx.info

Track history (hours):
 
Tides and Currents Weather Stations Pressure Air Temp Water Temp Dewpoint Dewpoint Depression Visibility Wind Speed Wind Dir Waves Ship Positions

Puget

Last reported at 2018-May-10 21:09 UTC. Time now 2018-May-27 01:31 UTC.
Position N 47°40' W 122°24'.
Warning: this ship's position is 16 days out of date.

Length 20 m; draft 0.2 m.

Type: Ship. MMSI: 369970510.

Date/timePositionNaut miles runAvg speedWind from/ knotsBaromVisibWave heightAir tempDewpointWater temp
2018-May-10 21:09N 47°40' W 122°24'0 1.5
2018-May-10 21:00N 47°40' W 122°23'0 0.0
2018-May-10 20:30N 47°40' W 122°23'0 0.1
2018-May-10 20:00N 47°40' W 122°24'0 0.7
2018-May-10 19:29N 47°40' W 122°24'2 3.7
2018-May-10 19:00N 47°39' W 122°27'4 7.5
2018-May-10 18:30N 47°37' W 122°22'1 2.3
2018-May-10 18:00N 47°37' W 122°21'0 0.0
2018-May-10 17:29N 47°37' W 122°21'1 2.5
2018-May-10 17:00N 47°36' W 122°22'3 6.1
2018-May-10 16:30N 47°38' W 122°25'2 4.2
2018-May-10 16:00N 47°40' W 122°24'0 0.9
2018-May-10 15:30N 47°40' W 122°24'0 0.3
2018-May-10 15:00N 47°40' W 122°24'0 0.3
2018-May-10 14:30N 47°40' W 122°24'  
2018-May-02 23:22N 47°40' W 122°24'0 0.5
2018-May-02 23:01N 47°40' W 122°24'0 0.0
2018-May-02 22:30N 47°40' W 122°24'0 0.0
2018-May-02 22:01N 47°40' W 122°24'0 0.0
2018-May-02 21:31N 47°40' W 122°24'0 0.5
2018-May-02 21:01N 47°40' W 122°24'0 0.3
2018-May-02 20:30N 47°40' W 122°24'2 3.8
2018-May-02 20:00N 47°40' W 122°27'5 9.2
2018-May-02 19:30N 47°35' W 122°28'5 9.1
2018-May-02 19:01N 47°31' W 122°29'510.6
2018-May-02 18:30N 47°25' W 122°32'510.5
2018-May-02 18:00N 47°20' W 122°33'612.1
2018-May-02 17:30N 47°14' W 122°35'  
Track history (hours):
 
Tides and Currents Weather Stations Pressure Air Temp Water Temp Dewpoint Dewpoint Depression Visibility Wind Speed Wind Dir Waves Ship Positions

Puget

Last reported at 2018-May-10 21:09 UTC. Time now 2018-May-27 01:31 UTC.
Position N 47°40' W 122°24'.
Warning: this ship's position is 16 days out of date.

Length 20 m; draft 0.2 m.

Type: Ship. MMSI: 369970510.

Date/timePositionNaut miles runAvg speedWind from/ knotsBaromVisibWave heightAir tempDewpointWater temp
2018-May-10 21:09N 47°40' W 122°24'0 1.5
2018-May-10 21:00N 47°40' W 122°23'0 0.0
2018-May-10 20:30N 47°40' W 122°23'0 0.1
2018-May-10 20:00N 47°40' W 122°24'0 0.7
2018-May-10 19:29N 47°40' W 122°24'2 3.7
2018-May-10 19:00N 47°39' W 122°27'4 7.5
2018-May-10 18:30N 47°37' W 122°22'1 2.3
2018-May-10 18:00N 47°37' W 122°21'0 0.0
2018-May-10 17:29N 47°37' W 122°21'1 2.5
2018-May-10 17:00N 47°36' W 122°22'3 6.1
2018-May-10 16:30N 47°38' W 122°25'2 4.2
2018-May-10 16:00N 47°40' W 122°24'0 0.9
2018-May-10 15:30N 47°40' W 122°24'0 0.3
2018-May-10 15:00N 47°40' W 122°24'0 0.3
2018-May-10 14:30N 47°40' W 122°24'  
2018-May-02 23:22N 47°40' W 122°24'0 0.5
2018-May-02 23:01N 47°40' W 122°24'0 0.0
2018-May-02 22:30N 47°40' W 122°24'0 0.0
2018-May-02 22:01N 47°40' W 122°24'0 0.0
2018-May-02 21:31N 47°40' W 122°24'0 0.5
2018-May-02 21:01N 47°40' W 122°24'0 0.3
2018-May-02 20:30N 47°40' W 122°24'2 3.8
2018-May-02 20:00N 47°40' W 122°27'5 9.2
2018-May-02 19:30N 47°35' W 122°28'5 9.1
2018-May-02 19:01N 47°31' W 122°29'510.6
2018-May-02 18:30N 47°25' W 122°32'510.5
2018-May-02 18:00N 47°20' W 122°33'612.1
2018-May-02 17:30N 47°14' W 122°35'  

Dump ship's entire track history